Time;durP1;ratioP1;P1;durP2;ratioP2;P2;SDS_P1;SDS_P2;PMS_P1;PMS_P2;Temp;Humidity;BMP_temperature;BMP_pressure;BME280_temperature;BME280_humidity;BME280_pressure;Samples;Min_cycle;Max_cycle;Signal;HPM_P1;HPM_P2
2024/01/22 00:00:16;;;;;;;0.80;0.70;;;22.30;30.70;;;;;;5121717;27;20031;-35
2024/01/22 00:02:42;;;;;;;0.60;0.60;;;22.40;30.70;;;;;;5126300;27;20031;-36
2024/01/22 00:05:11;;;;;;;1.17;0.88;;;22.40;30.50;;;;;;5123008;28;20031;-37
2024/01/22 00:07:55;;;;;;;1.52;0.57;;;22.40;30.60;;;;;;5121139;28;20446;-35
2024/01/22 00:10:21;;;;;;;1.05;0.70;;;22.30;30.60;;;;;;5116005;28;20035;-36
2024/01/22 00:12:47;;;;;;;0.90;0.70;;;22.30;30.70;;;;;;5119163;27;20060;-35
2024/01/22 00:15:13;;;;;;;0.93;0.60;;;22.20;30.70;;;;;;5118666;27;20035;-36
2024/01/22 00:17:39;;;;;;;0.67;0.60;;;22.20;30.80;;;;;;5117735;27;20553;-34
2024/01/22 00:20:07;;;;;;;1.58;0.85;;;22.20;30.70;;;;;;5119909;27;20280;-37
2024/01/22 00:22:33;;;;;;;1.40;0.90;;;22.20;30.70;;;;;;5116308;27;20027;-36
2024/01/22 00:24:59;;;;;;;1.00;0.80;;;22.20;30.70;;;;;;5119765;28;20038;-32
2024/01/22 00:27:25;;;;;;;1.13;0.80;;;22.10;30.60;;;;;;5118152;28;20085;-37
2024/01/22 00:29:51;;;;;;;1.58;0.88;;;22.10;30.80;;;;;;5119374;28;21179;-32
2024/01/22 00:32:17;;;;;;;1.40;0.90;;;22.10;30.80;;;;;;5119199;28;20045;-35
2024/01/22 00:34:44;;;;;;;1.48;0.95;;;22.10;30.80;;;;;;5122371;27;20031;-38
2024/01/22 00:37:10;;;;;;;1.08;0.88;;;22.10;30.80;;;;;;5123383;27;20081;-33
2024/01/22 00:39:36;;;;;;;1.33;0.90;;;22.10;30.80;;;;;;5119987;27;20035;-36
2024/01/22 00:42:02;;;;;;;1.95;0.90;;;22.10;30.80;;;;;;5113322;27;20118;-35
2024/01/22 00:44:28;;;;;;;1.83;1.13;;;22.20;30.70;;;;;;5117226;27;20162;-32
2024/01/22 00:46:55;;;;;;;1.50;0.93;;;22.30;30.80;;;;;;5121305;28;20092;-34
2024/01/22 00:49:21;;;;;;;1.33;1.23;;;22.30;30.80;;;;;;5118624;28;20034;-37
2024/01/22 00:51:47;;;;;;;2.78;1.15;;;22.20;30.80;;;;;;5116926;28;20028;-36
2024/01/22 00:54:13;;;;;;;1.80;1.02;;;22.10;30.90;;;;;;5117355;27;20032;-35
2024/01/22 00:56:40;;;;;;;2.00;0.85;;;22.10;31.00;;;;;;5118349;28;20028;-37
2024/01/22 00:59:06;;;;;;;1.35;1.00;;;22.10;31.20;;;;;;5115150;28;20047;-34
2024/01/22 01:01:32;;;;;;;1.45;0.90;;;22.10;31.20;;;;;;5117611;28;20047;-33
2024/01/22 01:03:58;;;;;;;1.67;1.00;;;22.10;31.10;;;;;;5117232;27;20028;-35
2024/01/22 01:06:24;;;;;;;2.00;1.10;;;22.10;31.20;;;;;;5113164;27;21281;-33
2024/01/22 01:08:50;;;;;;;1.85;0.90;;;22.10;31.30;;;;;;5115305;28;20164;-33
2024/01/22 01:11:17;;;;;;;1.75;1.10;;;22.00;31.40;;;;;;5118954;27;20087;-36
2024/01/22 01:13:43;;;;;;;1.25;0.90;;;22.00;31.30;;;;;;5113597;28;20023;-33
2024/01/22 01:16:09;;;;;;;1.65;1.20;;;22.10;31.30;;;;;;5117295;28;20092;-37
2024/01/22 01:18:35;;;;;;;1.65;1.20;;;22.30;31.30;;;;;;5117601;28;20039;-36
2024/01/22 01:21:01;;;;;;;1.45;1.20;;;22.20;31.20;;;;;;5113230;28;20472;-38
2024/01/22 01:23:27;;;;;;;1.13;1.00;;;22.20;31.40;;;;;;5115369;28;20103;-33
2024/01/22 01:25:53;;;;;;;1.58;0.90;;;22.10;31.40;;;;;;5108680;28;20024;-38
2024/01/22 01:28:20;;;;;;;2.13;1.70;;;22.10;31.60;;;;;;5114064;28;20079;-33
2024/01/22 01:30:46;;;;;;;3.28;2.60;;;22.00;31.60;;;;;;5114553;28;20058;-35
2024/01/22 01:33:34;;;;;;;5.95;4.18;;;22.10;31.60;;;;;;5053674;28;20037;-35
2024/01/22 01:36:00;;;;;;;5.63;4.68;;;22.10;31.50;;;;;;5057161;28;20037;-34
2024/01/22 01:38:26;;;;;;;5.25;4.50;;;22.10;31.50;;;;;;5056470;28;20056;-35
2024/01/22 01:40:52;;;;;;;4.72;4.20;;;22.00;31.40;;;;;;5055166;28;20029;-36
2024/01/22 01:43:18;;;;;;;6.00;5.03;;;22.00;31.50;;;;;;5054660;28;20021;-36
2024/01/22 01:45:45;;;;;;;5.07;4.25;;;22.00;31.60;;;;;;5049357;28;20040;-34
2024/01/22 01:48:11;;;;;;;5.35;4.75;;;22.00;31.40;;;;;;5046536;28;20091;-33
2024/01/22 01:50:38;;;;;;;6.07;4.57;;;22.20;31.30;;;;;;5050741;28;20029;-36
2024/01/22 01:53:04;;;;;;;5.10;4.60;;;22.20;31.40;;;;;;5035798;28;20041;-35
2024/01/22 01:55:30;;;;;;;5.47;4.20;;;22.10;31.30;;;;;;5054096;28;20033;-37
2024/01/22 01:57:56;;;;;;;4.90;4.28;;;22.00;31.90;;;;;;5051370;28;20341;-36
2024/01/22 02:00:23;;;;;;;4.88;3.83;;;22.00;31.50;;;;;;5067320;28;20088;-37
2024/01/22 02:02:49;;;;;;;4.88;4.05;;;22.00;31.50;;;;;;5048717;28;20084;-35
2024/01/22 02:05:16;;;;;;;5.20;3.65;;;22.10;31.50;;;;;;5060034;28;20040;-34
2024/01/22 02:07:42;;;;;;;;;;;22.10;31.50;;;;;;5051037;28;20040;-35
2024/01/22 02:10:12;;;;;;;3.97;3.28;;;22.00;31.50;;;;;;5071161;28;19912;-33
2024/01/22 02:12:39;;;;;;;4.50;3.60;;;21.90;31.60;;;;;;5113235;28;20028;-35
2024/01/22 02:15:06;;;;;;;3.78;2.90;;;21.90;31.50;;;;;;5118465;27;20801;-37
2024/01/22 02:17:32;;;;;;;4.68;2.50;;;21.90;31.40;;;;;;5119908;27;20036;-32
2024/01/22 02:19:58;;;;;;;6.78;2.60;;;22.10;31.40;;;;;;5118310;28;20027;-38
2024/01/22 02:22:24;;;;;;;5.75;2.83;;;22.30;31.50;;;;;;5119581;28;20053;-37
2024/01/22 02:24:51;;;;;;;6.07;2.80;;;22.30;31.30;;;;;;5118576;28;20118;-37
2024/01/22 02:27:17;;;;;;;6.05;2.83;;;22.20;31.50;;;;;;5121378;28;20134;-34
2024/01/22 02:29:44;;;;;;;4.90;2.15;;;22.00;31.60;;;;;;5121534;28;20085;-39
2024/01/22 02:32:10;;;;;;;4.17;2.57;;;21.90;31.70;;;;;;5120176;28;20046;-38
2024/01/22 02:34:37;;;;;;;6.05;2.63;;;21.80;31.80;;;;;;5120241;28;20344;-38
2024/01/22 02:37:03;;;;;;;5.65;2.90;;;21.70;31.90;;;;;;5119728;28;20038;-39
2024/01/22 02:39:30;;;;;;;3.47;2.53;;;21.70;31.80;;;;;;5120178;28;20032;-39
2024/01/22 02:41:56;;;;;;;3.05;2.17;;;21.70;31.80;;;;;;5119382;28;20028;-39
2024/01/22 02:44:22;;;;;;;3.38;2.35;;;21.60;31.90;;;;;;5120044;27;20031;-38
2024/01/22 02:46:48;;;;;;;3.65;2.17;;;21.60;31.90;;;;;;5120134;28;20386;-39
2024/01/22 02:49:15;;;;;;;3.20;2.20;;;21.70;31.70;;;;;;5116891;28;20031;-36
2024/01/22 02:51:44;;;;;;;2.72;1.90;;;21.90;31.50;;;;;;5120324;28;20023;-39
2024/01/22 02:54:12;;;;;;;2.50;1.83;;;22.00;31.40;;;;;;5119603;28;20053;-37
2024/01/22 02:56:39;;;;;;;2.47;1.90;;;22.00;31.60;;;;;;5120697;28;20068;-38
2024/01/22 02:59:06;;;;;;;;;;;21.90;31.70;;;;;;5120932;28;20123;-38
2024/01/22 03:01:32;;;;;;;3.38;2.00;;;21.70;31.80;;;;;;5113138;28;19916;-37
2024/01/22 03:03:58;;;;;;;1.95;1.58;;;21.60;31.90;;;;;;5118609;28;20024;-38
2024/01/22 03:06:24;;;;;;;2.13;1.75;;;21.50;31.90;;;;;;5114092;27;20019;-36
2024/01/22 03:08:51;;;;;;;2.65;1.90;;;21.50;31.80;;;;;;5115185;28;20024;-37
2024/01/22 03:11:17;;;;;;;2.40;1.70;;;21.50;31.80;;;;;;5118640;28;20020;-36
2024/01/22 03:13:43;;;;;;;2.27;1.80;;;21.50;32.00;;;;;;5120206;28;20036;-37
2024/01/22 03:16:10;;;;;;;2.22;1.77;;;21.40;32.00;;;;;;5116968;28;20492;-35
2024/01/22 03:18:36;;;;;;;1.95;1.65;;;21.30;32.00;;;;;;5114190;28;20794;-37
2024/01/22 03:21:03;;;;;;;2.05;1.55;;;21.40;32.10;;;;;;5114595;28;20044;-33
2024/01/22 03:23:30;;;;;;;2.88;1.70;;;21.60;31.80;;;;;;5108942;28;20036;-36
2024/01/22 03:25:56;;;;;;;2.45;1.80;;;21.80;31.80;;;;;;5112598;28;20521;-36
2024/01/22 03:28:23;;;;;;;2.58;1.85;;;21.70;31.80;;;;;;5107705;28;20047;-39
2024/01/22 03:30:49;;;;;;;2.17;1.60;;;21.50;31.90;;;;;;5107378;28;20032;-38
2024/01/22 03:33:15;;;;;;;2.67;1.90;;;21.50;32.10;;;;;;5109270;28;20035;-36
2024/01/22 03:35:41;;;;;;;2.97;1.60;;;21.50;32.10;;;;;;5106481;28;20039;-35
2024/01/22 03:38:07;;;;;;;2.22;1.90;;;21.40;32.00;;;;;;5105532;28;20061;-35
2024/01/22 03:40:33;;;;;;;2.33;1.90;;;21.40;32.10;;;;;;5108725;28;20025;-38
2024/01/22 03:42:59;;;;;;;2.17;1.73;;;21.30;32.20;;;;;;5108080;28;20171;-33
2024/01/22 03:45:26;;;;;;;2.17;1.50;;;21.20;32.30;;;;;;5110975;28;20052;-37
2024/01/22 03:47:52;;;;;;;2.75;1.75;;;21.20;32.30;;;;;;5105237;28;20039;-39
2024/01/22 03:50:18;;;;;;;2.72;1.88;;;21.40;32.30;;;;;;5104272;28;20038;-38
2024/01/22 03:52:44;;;;;;;1.70;1.58;;;21.50;32.10;;;;;;5103061;28;20087;-39
2024/01/22 03:55:10;;;;;;;2.17;1.40;;;21.60;31.90;;;;;;5106308;28;20186;-36
2024/01/22 03:57:37;;;;;;;2.35;1.75;;;21.70;31.80;;;;;;5106292;28;20031;-36
2024/01/22 04:00:03;;;;;;;2.45;1.63;;;21.80;31.80;;;;;;5115308;28;20031;-35
2024/01/22 04:02:33;;;;;;;1.88;1.45;;;21.90;31.60;;;;;;5115393;28;20034;-35
2024/01/22 04:05:00;;;;;;;2.70;2.03;;;22.00;31.60;;;;;;5114741;28;20088;-35
2024/01/22 04:07:26;;;;;;;2.22;1.85;;;21.90;31.60;;;;;;5111157;28;20036;-35
2024/01/22 04:09:52;;;;;;;2.10;1.65;;;21.80;31.60;;;;;;5118090;28;20035;-35
2024/01/22 04:12:18;;;;;;;2.30;1.58;;;21.70;31.80;;;;;;5116361;28;20031;-34
2024/01/22 04:14:44;;;;;;;2.65;2.08;;;21.60;32.00;;;;;;5113055;28;20031;-35
2024/01/22 04:17:10;;;;;;;2.80;1.83;;;21.50;32.00;;;;;;5114115;28;20184;-36
2024/01/22 04:19:37;;;;;;;2.63;1.70;;;21.50;31.90;;;;;;5115759;28;20035;-37
2024/01/22 04:22:03;;;;;;;2.67;1.67;;;21.50;31.90;;;;;;5116787;27;20039;-37
2024/01/22 04:24:29;;;;;;;2.33;1.90;;;21.50;32.00;;;;;;5120698;27;20032;-38
2024/01/22 04:26:55;;;;;;;2.20;1.70;;;21.30;32.00;;;;;;5116891;28;20295;-37
2024/01/22 04:29:22;;;;;;;2.13;1.90;;;21.20;32.20;;;;;;5118642;28;20047;-36
2024/01/22 04:31:48;;;;;;;2.40;2.00;;;21.30;32.20;;;;;;5116582;28;20040;-33
2024/01/22 04:34:14;;;;;;;2.33;1.90;;;21.50;32.10;;;;;;5114639;27;20028;-37
2024/01/22 04:36:40;;;;;;;3.30;1.90;;;21.60;32.00;;;;;;5118655;27;20039;-38
2024/01/22 04:39:07;;;;;;;2.15;1.60;;;21.70;31.90;;;;;;5114030;28;20027;-37
2024/01/22 04:41:33;;;;;;;2.88;1.90;;;21.80;31.80;;;;;;5118770;27;20111;-38
2024/01/22 04:43:59;;;;;;;2.42;1.88;;;21.90;31.80;;;;;;5119085;28;20047;-37
2024/01/22 04:46:25;;;;;;;2.38;1.83;;;22.00;31.60;;;;;;5114472;27;20020;-39
2024/01/22 04:48:51;;;;;;;2.47;1.98;;;22.00;31.70;;;;;;5112923;28;20043;-37
2024/01/22 04:51:17;;;;;;;2.53;2.10;;;21.90;31.60;;;;;;5112717;28;20042;-38
2024/01/22 04:53:44;;;;;;;2.22;2.03;;;21.80;31.80;;;;;;5113247;28;20053;-35
2024/01/22 04:56:10;;;;;;;2.83;2.00;;;21.60;31.90;;;;;;5116588;28;20134;-36
2024/01/22 04:58:36;;;;;;;2.42;2.00;;;21.50;32.10;;;;;;5112733;27;20032;-39
2024/01/22 05:01:03;;;;;;;2.95;1.80;;;21.50;31.90;;;;;;5112788;27;20034;-38
2024/01/22 05:03:29;;;;;;;2.72;2.38;;;21.50;31.90;;;;;;5116149;28;20617;-35
2024/01/22 05:05:55;;;;;;;2.72;2.20;;;21.50;32.50;;;;;;5119443;28;20054;-37
2024/01/22 05:08:21;;;;;;;2.70;2.00;;;21.40;32.00;;;;;;5112965;28;20067;-35
2024/01/22 05:10:47;;;;;;;3.03;1.90;;;21.30;32.10;;;;;;5119980;28;20039;-39
2024/01/22 05:13:13;;;;;;;3.05;1.98;;;21.20;32.20;;;;;;5119100;28;20031;-37
2024/01/22 05:15:40;;;;;;;2.60;1.65;;;21.40;32.10;;;;;;5109065;28;20028;-37
2024/01/22 05:18:06;;;;;;;3.03;2.33;;;21.60;31.70;;;;;;5112611;28;20038;-36
2024/01/22 05:20:32;;;;;;;2.72;2.05;;;21.60;31.80;;;;;;5108975;27;20036;-37
2024/01/22 05:22:58;;;;;;;2.60;1.85;;;21.50;31.90;;;;;;5112189;28;20061;-39
2024/01/22 05:25:25;;;;;;;2.67;2.05;;;21.40;32.00;;;;;;5116939;27;20027;-39
2024/01/22 05:27:51;;;;;;;2.97;2.08;;;21.30;32.20;;;;;;5113127;28;20115;-37
2024/01/22 05:30:19;;;;;;;2.42;2.13;;;21.30;32.10;;;;;;5112811;28;20039;-37
2024/01/22 05:32:45;;;;;;;2.70;2.20;;;21.20;32.00;;;;;;5116859;28;20031;-39
2024/01/22 05:35:13;;;;;;;2.00;1.80;;;21.30;32.10;;;;;;5112348;28;20031;-41
2024/01/22 05:37:39;;;;;;;2.22;1.85;;;21.20;32.20;;;;;;5118060;28;20105;-34
2024/01/22 05:40:10;;;;;;;2.38;1.83;;;21.10;32.30;;;;;;5114301;28;20035;-40
2024/01/22 05:42:37;;;;;;;2.15;1.63;;;21.30;32.30;;;;;;5121162;28;20044;-37
2024/01/22 05:45:03;;;;;;;2.10;1.63;;;21.40;32.10;;;;;;5112535;28;20047;-39
2024/01/22 05:47:29;;;;;;;2.25;1.70;;;21.60;31.90;;;;;;5118030;28;20039;-37
2024/01/22 05:49:55;;;;;;;2.70;2.05;;;21.60;31.90;;;;;;5114444;28;20084;-38
2024/01/22 05:52:22;;;;;;;2.22;1.98;;;21.40;32.00;;;;;;5110857;28;20567;-35
2024/01/22 05:54:48;;;;;;;2.92;2.03;;;21.30;32.10;;;;;;5112614;28;20096;-38
2024/01/22 05:57:14;;;;;;;2.75;2.08;;;21.20;32.20;;;;;;5113258;28;20163;-33
2024/01/22 05:59:40;;;;;;;2.60;2.17;;;21.20;32.10;;;;;;5115530;28;20096;-36
2024/01/22 06:02:06;;;;;;;2.53;1.95;;;21.20;32.20;;;;;;5110863;27;20133;-37
2024/01/22 06:04:32;;;;;;;2.30;2.10;;;21.20;32.90;;;;;;5111545;28;20044;-37
2024/01/22 06:06:58;;;;;;;2.63;2.35;;;21.10;32.30;;;;;;5113862;27;20035;-37
2024/01/22 06:09:24;;;;;;;2.47;1.90;;;21.00;32.40;;;;;;5112324;28;20027;-35
2024/01/22 06:11:51;;;;;;;2.80;1.80;;;21.10;32.40;;;;;;5112529;27;20028;-36
2024/01/22 06:14:17;;;;;;;2.67;2.00;;;21.40;32.20;;;;;;5116431;28;20091;-37
2024/01/22 06:16:46;;;;;;;2.67;1.92;;;21.50;31.90;;;;;;5109961;28;20040;-38
2024/01/22 06:19:12;;;;;;;2.30;1.98;;;21.60;31.90;;;;;;5116313;28;20027;-37
2024/01/22 06:21:38;;;;;;;2.28;1.98;;;21.60;31.90;;;;;;5105370;28;20036;-38
2024/01/22 06:24:05;;;;;;;2.63;2.00;;;21.70;31.90;;;;;;5107508;27;20027;-37
2024/01/22 06:26:33;;;;;;;3.05;2.30;;;21.80;31.80;;;;;;5106078;27;20113;-37
2024/01/22 06:28:59;;;;;;;3.08;2.00;;;21.80;31.80;;;;;;5112605;28;20052;-36
2024/01/22 06:31:25;;;;;;;2.60;2.10;;;21.70;31.90;;;;;;5110694;28;20043;-37
2024/01/22 06:33:52;;;;;;;2.60;2.20;;;21.60;31.90;;;;;;5108770;28;20069;-35
2024/01/22 06:36:18;;;;;;;2.42;2.03;;;21.50;32.10;;;;;;5108795;28;20876;-37
2024/01/22 06:38:44;;;;;;;2.63;2.00;;;21.40;32.30;;;;;;5110771;28;20065;-35
2024/01/22 06:41:15;;;;;;;3.42;2.25;;;21.30;32.30;;;;;;5103286;28;20096;-36
2024/01/22 06:43:41;;;;;;;3.17;2.55;;;21.30;32.10;;;;;;5105494;28;20036;-38
2024/01/22 06:46:07;;;;;;;3.22;2.60;;;21.30;32.10;;;;;;5107198;28;20544;-36
2024/01/22 06:48:33;;;;;;;2.92;2.42;;;21.30;32.20;;;;;;5108336;27;20039;-38
2024/01/22 06:50:59;;;;;;;2.67;2.30;;;21.20;32.30;;;;;;5109982;28;20032;-38
2024/01/22 06:53:25;;;;;;;4.03;2.60;;;21.10;32.40;;;;;;5105355;28;20030;-35
2024/01/22 06:55:52;;;;;;;2.90;2.53;;;21.10;32.40;;;;;;5110354;28;20043;-37
2024/01/22 06:58:19;;;;;;;2.58;2.30;;;21.30;32.20;;;;;;5107037;28;20042;-39
2024/01/22 07:00:47;;;;;;;3.35;2.47;;;21.50;32.10;;;;;;5107660;28;20032;-36
2024/01/22 07:03:13;;;;;;;;;;;21.60;32.00;;;;;;5117492;28;20034;-38
2024/01/22 07:05:40;;;;;;;3.40;2.70;;;21.70;32.00;;;;;;5115445;28;19912;-39
2024/01/22 07:08:06;;;;;;;5.43;2.80;;;21.70;31.90;;;;;;5118671;28;20046;-39
2024/01/22 07:10:33;;;;;;;3.47;2.77;;;21.80;31.80;;;;;;5112944;28;20051;-33
2024/01/22 07:12:59;;;;;;;4.10;3.08;;;21.90;31.40;;;;;;5114398;28;20054;-35
2024/01/22 07:15:25;;;;;;;3.97;2.85;;;21.90;31.60;;;;;;5113185;28;20051;-40
2024/01/22 07:17:51;;;;;;;3.88;3.08;;;21.80;31.70;;;;;;5110723;28;20038;-36
2024/01/22 07:20:17;;;;;;;3.50;3.20;;;21.70;31.70;;;;;;5109407;28;20824;-37
2024/01/22 07:22:44;;;;;;;5.90;2.85;;;21.60;31.80;;;;;;5111789;28;20044;-37
2024/01/22 07:25:11;;;;;;;5.45;2.88;;;21.50;32.20;;;;;;5109949;28;20031;-38
2024/01/22 07:27:42;;;;;;;3.75;2.80;;;21.40;32.20;;;;;;5111118;28;20108;-34
2024/01/22 07:30:11;;;;;;;3.95;3.22;;;21.40;32.20;;;;;;5111882;28;20047;-34
2024/01/22 07:32:38;;;;;;;3.97;2.95;;;21.40;32.20;;;;;;5112044;28;20126;-39
2024/01/22 07:35:09;;;;;;;4.88;3.67;;;21.40;32.90;;;;;;5112462;28;20031;-39
2024/01/22 07:37:36;;;;;;;3.85;3.17;;;21.30;32.40;;;;;;5110443;28;20650;-36
2024/01/22 07:40:04;;;;;;;3.17;2.80;;;21.30;32.30;;;;;;5110527;28;20032;-38
2024/01/22 07:42:37;;;;;;;3.47;2.90;;;21.40;32.40;;;;;;5110014;28;20514;-35
2024/01/22 07:45:06;;;;;;;3.10;2.80;;;21.50;32.30;;;;;;5114331;28;20030;-38
2024/01/22 07:47:33;;;;;;;3.53;2.88;;;21.70;32.20;;;;;;5116070;28;20070;-39
2024/01/22 07:49:59;;;;;;;3.65;3.25;;;21.60;32.10;;;;;;5118483;28;20035;-38
2024/01/22 07:52:25;;;;;;;3.80;3.20;;;21.50;32.20;;;;;;5115419;28;20024;-37
2024/01/22 07:54:52;;;;;;;4.30;3.20;;;21.40;32.30;;;;;;5121167;28;20030;-38
2024/01/22 07:57:18;;;;;;;4.85;3.13;;;21.30;32.40;;;;;;5121804;27;20039;-36
2024/01/22 07:59:44;;;;;;;4.10;3.47;;;21.30;32.30;;;;;;5122610;28;20492;-36
2024/01/22 08:02:11;;;;;;;3.83;3.30;;;21.30;32.20;;;;;;5122827;27;20031;-35
2024/01/22 08:04:37;;;;;;;4.15;3.38;;;21.30;32.30;;;;;;5121121;28;20031;-38
2024/01/22 08:07:06;;;;;;;4.57;3.47;;;21.20;32.40;;;;;;5119062;28;20040;-38
2024/01/22 08:09:33;;;;;;;3.70;3.28;;;21.10;32.50;;;;;;5118223;28;20272;-36
2024/01/22 08:11:59;;;;;;;3.67;3.20;;;21.10;32.40;;;;;;5117660;28;20043;-38
2024/01/22 08:14:25;;;;;;;3.95;3.33;;;21.20;32.40;;;;;;5120404;28;20028;-37
2024/01/22 08:16:51;;;;;;;4.18;3.20;;;21.30;32.40;;;;;;5121332;28;20042;-39
2024/01/22 08:19:17;;;;;;;4.38;3.50;;;21.50;32.30;;;;;;5120876;28;20605;-36
2024/01/22 08:21:43;;;;;;;3.97;3.17;;;21.50;32.30;;;;;;5113390;28;20302;-34
2024/01/22 08:24:09;;;;;;;3.72;3.22;;;21.40;32.20;;;;;;5111845;28;20035;-37
2024/01/22 08:26:36;;;;;;;4.35;3.25;;;21.20;32.50;;;;;;5114062;28;20028;-38
2024/01/22 08:29:02;;;;;;;4.05;3.20;;;21.10;32.70;;;;;;5114821;28;20072;-35
2024/01/22 08:31:28;;;;;;;4.25;3.20;;;21.10;32.50;;;;;;5114314;28;20031;-38
2024/01/22 08:33:54;;;;;;;4.20;3.25;;;21.10;32.40;;;;;;5114424;28;20044;-38
2024/01/22 08:36:20;;;;;;;4.57;3.75;;;21.10;32.50;;;;;;5114827;28;20024;-39
2024/01/22 08:38:46;;;;;;;4.60;3.70;;;21.00;32.60;;;;;;5115124;28;20095;-37
2024/01/22 08:41:13;;;;;;;4.57;3.58;;;20.90;32.80;;;;;;5114720;28;20032;-37
2024/01/22 08:43:39;;;;;;;4.60;3.45;;;20.80;32.70;;;;;;5114167;28;20032;-36
2024/01/22 08:46:05;;;;;;;4.05;3.50;;;20.80;32.50;;;;;;5113691;28;20099;-38
2024/01/22 08:48:31;;;;;;;5.00;3.50;;;20.80;32.50;;;;;;5114045;27;20039;-37
2024/01/22 08:50:58;;;;;;;5.35;3.90;;;20.80;32.60;;;;;;5115401;27;20114;-39
2024/01/22 08:53:24;;;;;;;5.07;3.85;;;20.70;32.80;;;;;;5119975;28;20058;-38
2024/01/22 08:55:50;;;;;;;4.55;3.35;;;20.60;32.80;;;;;;5117924;28;20101;-37
2024/01/22 08:58:16;;;;;;;4.50;3.50;;;20.60;32.80;;;;;;5114787;27;20055;-36
2024/01/22 09:00:42;;;;;;;4.93;3.78;;;20.60;32.80;;;;;;5118301;27;20027;-38
2024/01/22 09:03:08;;;;;;;4.43;3.60;;;20.60;32.80;;;;;;5117858;28;20050;-37
2024/01/22 09:05:35;;;;;;;4.43;3.30;;;20.60;32.90;;;;;;5116863;28;20028;-37
2024/01/22 09:08:01;;;;;;;3.92;3.22;;;20.50;32.90;;;;;;5121575;28;20063;-37
2024/01/22 09:10:27;;;;;;;4.32;3.35;;;20.40;33.00;;;;;;5119293;27;20043;-39
2024/01/22 09:12:53;;;;;;;4.38;3.55;;;20.30;33.10;;;;;;5119231;28;20032;-40
2024/01/22 09:15:20;;;;;;;4.37;3.70;;;20.40;33.00;;;;;;5121474;28;20024;-38
2024/01/22 09:17:46;;;;;;;4.30;3.60;;;20.40;33.00;;;;;;5121595;28;20280;-35
2024/01/22 09:20:12;;;;;;;4.13;3.63;;;20.40;33.00;;;;;;5118450;28;20031;-35
2024/01/22 09:22:39;;;;;;;4.63;3.47;;;20.30;33.20;;;;;;5112539;28;20055;-38
2024/01/22 09:25:05;;;;;;;4.70;3.20;;;20.20;33.20;;;;;;5113175;28;20027;-39
2024/01/22 09:27:32;;;;;;;4.47;3.23;;;20.10;33.20;;;;;;5113663;28;20051;-39
2024/01/22 09:30:00;;;;;;;5.40;4.00;;;20.20;33.20;;;;;;5114059;28;20058;-36
2024/01/22 09:32:27;;;;;;;4.25;3.00;;;20.20;33.20;;;;;;5112875;28;20024;-40
2024/01/22 09:34:53;;;;;;;4.90;3.42;;;20.20;33.20;;;;;;5113925;28;20024;-39
2024/01/22 09:37:19;;;;;;;3.80;2.90;;;20.20;33.30;;;;;;5113462;28;20029;-36
2024/01/22 09:39:45;;;;;;;4.28;3.28;;;20.10;33.40;;;;;;5114166;27;20118;-37
2024/01/22 09:42:14;;;;;;;3.65;3.30;;;20.00;33.50;;;;;;5113126;28;20091;-37
2024/01/22 09:44:45;;;;;;;4.32;3.00;;;20.00;33.40;;;;;;5112591;28;20031;-39
2024/01/22 09:47:11;;;;;;;4.47;3.38;;;20.00;33.40;;;;;;5113308;28;20562;-39
2024/01/22 09:49:38;;;;;;;4.72;3.42;;;20.10;33.40;;;;;;5111560;28;20074;-38
2024/01/22 09:52:05;;;;;;;5.20;3.58;;;20.10;34.10;;;;;;5119199;28;20024;-37
2024/01/22 09:54:31;;;;;;;4.17;3.27;;;20.00;33.60;;;;;;5118120;28;20032;-39
2024/01/22 09:57:02;;;;;;;3.67;2.97;;;19.90;33.70;;;;;;5117770;27;20031;-37
2024/01/22 09:59:28;;;;;;;4.55;3.38;;;19.90;33.60;;;;;;5119661;28;20028;-38
2024/01/22 10:01:55;;;;;;;3.95;2.95;;;19.90;33.50;;;;;;5116915;28;20129;-39
2024/01/22 10:04:25;;;;;;;3.97;3.20;;;20.00;33.60;;;;;;5118385;28;20771;-38
2024/01/22 10:06:52;;;;;;;4.10;3.20;;;19.90;33.70;;;;;;5120208;28;20046;-38
2024/01/22 10:09:18;;;;;;;4.13;3.30;;;19.80;33.70;;;;;;5116254;28;20028;-39
2024/01/22 10:11:47;;;;;;;3.20;2.70;;;19.80;33.80;;;;;;5115907;27;20042;-38
2024/01/22 10:14:13;;;;;;;3.38;2.88;;;19.80;33.80;;;;;;5117925;28;20066;-38
2024/01/22 10:16:39;;;;;;;3.60;2.83;;;19.80;33.70;;;;;;5115937;28;20028;-39
2024/01/22 10:19:10;;;;;;;2.88;2.58;;;19.80;34.00;;;;;;5116044;28;20039;-35
2024/01/22 10:21:39;;;;;;;3.13;2.80;;;19.80;34.10;;;;;;5113603;28;20036;-39
2024/01/22 10:24:06;;;;;;;3.17;2.67;;;19.80;34.10;;;;;;5114517;28;20033;-38
2024/01/22 10:26:32;;;;;;;;;;;19.70;34.20;;;;;;5117885;28;20160;-38
2024/01/22 10:29:15;;;;;;;3.47;2.70;;;19.70;34.10;;;;;;5115794;28;19920;-38
2024/01/22 10:31:58;;;;;;;3.22;2.55;;;19.70;34.10;;;;;;5118477;28;20043;-39
2024/01/22 10:34:32;;;;;;;3.35;2.63;;;19.70;34.00;;;;;;5116448;28;20036;-39
2024/01/22 10:37:12;;;;;;;3.35;2.67;;;19.80;34.10;;;;;;5119127;28;20030;-39
2024/01/22 10:39:42;;;;;;;3.53;2.55;;;19.70;34.20;;;;;;5117127;28;20040;-38
2024/01/22 10:42:16;;;;;;;3.08;2.78;;;19.60;34.30;;;;;;5114948;28;20083;-40
2024/01/22 10:44:46;;;;;;;3.05;2.50;;;19.60;34.30;;;;;;5118791;28;20043;-39
2024/01/22 10:47:12;;;;;;;3.55;2.38;;;19.60;34.20;;;;;;5109050;28;20032;-40
2024/01/22 10:49:39;;;;;;;4.28;2.67;;;19.70;34.20;;;;;;5118818;28;20036;-39
2024/01/22 10:52:05;;;;;;;2.60;2.40;;;19.70;34.20;;;;;;5116112;28;20027;-39
2024/01/22 10:54:32;;;;;;;3.13;2.65;;;19.60;34.30;;;;;;5114508;28;20494;-37
2024/01/22 10:57:25;;;;;;;3.10;2.55;;;19.50;34.30;;;;;;5116888;28;20026;-40
2024/01/22 10:59:51;;;;;;;3.70;2.72;;;19.50;34.30;;;;;;5100313;28;20155;-40
2024/01/22 11:02:23;;;;;;;2.72;2.40;;;19.60;34.20;;;;;;5091179;28;20035;-37
2024/01/22 11:05:28;;;;;;;2.78;2.20;;;19.60;34.20;;;;;;5115330;28;20031;-39
2024/01/22 11:07:54;;;;;;;2.88;2.22;;;19.60;34.20;;;;;;5074771;28;20072;-38
2024/01/22 11:10:20;;;;;;;2.58;2.38;;;19.60;34.40;;;;;;5053243;28;20070;-37
2024/01/22 11:12:49;;;;;;;3.05;2.15;;;19.50;34.40;;;;;;5078458;28;20040;-38
2024/01/22 11:15:15;;;;;;;2.88;2.22;;;19.50;34.40;;;;;;5091346;28;20063;-35
2024/01/22 11:17:41;;;;;;;2.25;1.70;;;19.50;34.30;;;;;;5074651;28;20028;-36
2024/01/22 11:20:17;;;;;;;2.70;2.10;;;19.60;34.30;;;;;;5058413;28;20036;-38
2024/01/22 11:23:00;;;;;;;2.60;2.00;;;19.60;34.30;;;;;;5076015;28;20139;-39
2024/01/22 11:25:26;;;;;;;3.53;2.50;;;19.50;34.40;;;;;;5059992;28;20040;-37
2024/01/22 11:28:03;;;;;;;2.53;2.13;;;19.40;35.00;;;;;;5076121;28;20056;-35
2024/01/22 11:30:32;;;;;;;2.58;2.08;;;19.50;34.40;;;;;;5075781;28;20424;-39
2024/01/22 11:32:59;;;;;;;2.28;2.00;;;19.50;34.30;;;;;;5075749;28;20036;-39
2024/01/22 11:35:35;;;;;;;2.65;2.33;;;19.50;34.40;;;;;;5075924;28;20021;-39
2024/01/22 11:38:02;;;;;;;2.97;2.00;;;19.50;34.70;;;;;;5080682;28;20050;-37
2024/01/22 11:40:55;;;;;;;2.45;1.75;;;19.40;34.90;;;;;;5114321;28;20032;-38
2024/01/22 11:43:22;;;;;;;2.63;2.17;;;19.40;35.00;;;;;;5113787;28;20031;-39
2024/01/22 11:45:51;;;;;;;;;;;19.40;34.70;;;;;;5112526;28;20036;-36
2024/01/22 11:48:19;;;;;;;2.10;1.80;;;19.50;34.60;;;;;;5113338;28;19920;-38
2024/01/22 11:51:01;;;;;;;2.20;1.90;;;19.50;34.50;;;;;;5113416;28;20028;-37
2024/01/22 11:53:28;;;;;;;3.08;2.08;;;19.50;34.70;;;;;;5110500;28;20032;-38
2024/01/22 11:56:01;;;;;;;2.60;2.07;;;19.40;34.70;;;;;;5113590;28;20046;-36
2024/01/22 11:58:29;;;;;;;2.00;1.65;;;19.30;34.70;;;;;;5115318;28;20023;-37
2024/01/22 12:00:55;;;;;;;2.55;2.13;;;19.40;34.70;;;;;;5095789;28;21029;-38
2024/01/22 12:03:30;;;;;;;2.78;2.08;;;19.40;34.60;;;;;;5113960;28;20039;-35
2024/01/22 12:06:07;;;;;;;2.53;1.90;;;19.40;34.50;;;;;;5113852;28;20067;-39
2024/01/22 12:08:34;;;;;;;2.42;1.80;;;19.40;34.60;;;;;;5114558;28;20039;-38
2024/01/22 12:11:13;;;;;;;2.00;1.60;;;19.30;34.60;;;;;;5114012;28;20053;-37
2024/01/22 12:13:42;;;;;;;2.30;2.05;;;19.30;34.80;;;;;;5114210;28;20043;-37
2024/01/22 12:16:18;;;;;;;2.30;1.70;;;19.30;34.70;;;;;;5114042;28;20106;-37
2024/01/22 12:18:45;;;;;;;2.22;2.00;;;19.40;34.60;;;;;;5117963;28;20052;-36
2024/01/22 12:21:11;;;;;;;2.40;1.93;;;19.40;34.50;;;;;;5116923;28;20039;-39
2024/01/22 12:23:37;;;;;;;1.52;1.17;;;19.40;34.60;;;;;;5112023;28;20419;-38
2024/01/22 12:26:11;;;;;;;2.17;1.85;;;19.30;34.70;;;;;;5120238;28;20053;-39
2024/01/22 12:28:37;;;;;;;2.00;1.67;;;19.30;34.70;;;;;;5116447;28;20060;-35
2024/01/22 12:31:03;;;;;;;1.80;1.60;;;19.30;34.70;;;;;;5118184;28;20032;-36
2024/01/22 12:33:30;;;;;;;1.90;1.70;;;19.30;34.60;;;;;;5115339;28;20049;-40
2024/01/22 12:36:09;;;;;;;2.75;2.03;;;19.40;34.60;;;;;;5118742;28;20027;-38
2024/01/22 12:38:49;;;;;;;1.98;1.55;;;19.40;34.60;;;;;;5108437;28;20469;-39
2024/01/22 12:41:15;;;;;;;2.47;1.80;;;19.30;34.70;;;;;;5116556;27;20032;-37
2024/01/22 12:43:41;;;;;;;4.82;1.90;;;19.20;34.70;;;;;;5120842;27;20043;-38
2024/01/22 12:46:15;;;;;;;1.63;1.35;;;19.30;34.70;;;;;;5121227;28;20073;-35
2024/01/22 12:48:44;;;;;;;1.90;1.40;;;19.40;34.70;;;;;;5117885;27;20044;-35